Portada
METAR-TAF:

METAR-TAF

Aeropuertos :

Base aérea Cameri

Novara, Italia

latitud: 45-31N, longitud: 008-40E, altitud: 178 m

Observación

El informe se hizo hace 2 horas y 54 minutos, a las 17:55 UTC
Temperatura 10°C
Humedad 66%
Presión 1028 hPa
Visibilidad 10 km o más
sin nubes por debajo de 1500 m y sin presencia de cumulonimbus.

METAR: LIMN 031755Z /////KT CAVOK 10/04 Q1028 RMK BKN SCT100 SCT200 VIS MIN 9999 BLU

Hora: 21:49 (20:49 UTC)

Pronóstico

El informe se hizo hace 3 horas y 49 minutos, a las 17:00 UTC
Pronóstico válido del 03 a las 18 UTC al 04 a las 03 UTC
Viento 5 kt del norte
Visibilidad 10 km o más
sin nubes por debajo de 1500 m y sin presencia de cumulonimbus.

TAF: LIMN 031700Z 0318/0403 35005KT CAVOK

Observaciones y pronósticos meteorológicos de más de 4000 aeropuertos (mensajes METAR y TAF).

Los puntos amarillos y rojos representan las estaciones disponibles.

Ponga el ratón en el punto deseado para ver el nombre de la estación.

Haga clic para ver las observaciones y los pronósticos meteorológicos.

Para cambiar el mapa : haga clic en los botones verdes con una cruz de color negro para hacer un zoom, en el botón verde con un guión para alejar o en las flechas verdes para mapas adyacentes.


METAR-TAF: